Time;durP1;ratioP1;P1;durP2;ratioP2;P2;SDS_P1;SDS_P2;PMS_P1;PMS_P2;Temp;Humidity;BMP_temperature;BMP_pressure;BME280_temperature;BME280_humidity;BME280_pressure;Samples;Min_cycle;Max_cycle;Signal;HPM_P1;HPM_P2
2022/11/01 00:07:24;;;;;;;5.25;2.90;;;20.10;60.70;;;;;;20666217;28;20034;-73
2022/11/01 00:17:24;;;;;;;5.35;3.22;;;20.20;60.80;;;;;;20669348;28;20034;-75
2022/11/01 00:27:25;;;;;;;4.93;3.25;;;20.10;60.80;;;;;;20641414;28;20034;-73
2022/11/01 00:37:29;;;;;;;4.07;2.67;;;20.10;60.80;;;;;;20652043;28;20485;-73
2022/11/01 00:47:30;;;;;;;5.25;3.50;;;20.10;60.90;;;;;;20718182;28;20085;-74
2022/11/01 00:57:30;;;;;;;4.07;2.83;;;20.00;60.90;;;;;;20653256;28;20050;-75
2022/11/01 01:07:31;;;;;;;6.38;3.70;;;20.00;61.00;;;;;;20654064;28;20297;-75
2022/11/01 01:17:32;;;;;;;4.82;2.58;;;20.00;61.00;;;;;;20658517;28;20034;-74
2022/11/01 01:27:33;;;;;;;4.95;3.08;;;20.00;61.00;;;;;;20673259;28;20089;-75
2022/11/01 01:37:33;;;;;;;5.22;2.97;;;19.90;61.00;;;;;;20696540;28;20468;-74
2022/11/01 01:47:36;;;;;;;8.40;4.23;;;20.00;61.10;;;;;;20675692;28;20038;-75
2022/11/01 01:57:38;;;;;;;6.30;3.33;;;19.90;61.10;;;;;;20686071;28;20050;-74
2022/11/01 02:07:38;;;;;;;4.57;2.77;;;19.90;61.20;;;;;;21033702;23;20127;-74
2022/11/01 02:17:58;;;;;;;4.93;2.70;;;19.90;61.30;;;;;;20667387;28;20297;-74
2022/11/01 02:28:14;;;;;;;4.60;3.03;;;19.90;61.30;;;;;;20619099;28;20074;-73
2022/11/01 02:38:21;;;;;;;5.43;3.17;;;19.90;61.30;;;;;;20658778;28;20133;-74
2022/11/01 02:48:21;;;;;;;4.53;2.78;;;19.90;61.40;;;;;;20670704;28;20128;-75
2022/11/01 02:58:24;;;;;;;4.17;2.53;;;19.90;61.40;;;;;;20685872;28;20477;-74
2022/11/01 03:08:39;;;;;;;4.47;3.05;;;19.90;61.40;;;;;;20685637;28;20058;-74
2022/11/01 03:18:50;;;;;;;4.25;2.58;;;19.90;61.40;;;;;;20683692;28;20037;-75
2022/11/01 03:28:54;;;;;;;4.95;3.15;;;19.80;61.40;;;;;;20659545;28;20045;-74
2022/11/01 03:39:06;;;;;;;4.82;3.05;;;19.80;61.40;;;;;;20645499;28;20088;-74
2022/11/01 03:49:06;;;;;;;6.05;3.40;;;19.80;61.50;;;;;;20664965;28;20042;-74
2022/11/01 03:59:07;;;;;;;5.07;3.03;;;19.80;61.50;;;;;;20677108;28;20042;-74
2022/11/01 04:09:08;;;;;;;5.10;3.63;;;19.80;61.60;;;;;;20636031;28;20393;-73
2022/11/01 04:29:27;;;;;;;4.47;3.25;;;19.70;61.60;;;;;;20673027;28;20042;-73
2022/11/01 04:39:28;;;;;;;5.18;3.47;;;19.70;61.70;;;;;;20652571;28;20515;-73
2022/11/01 04:49:28;;;;;;;4.80;3.30;;;19.70;62.40;;;;;;20685357;28;20034;-73
2022/11/01 04:59:29;;;;;;;4.63;3.00;;;19.70;61.80;;;;;;20687005;28;20515;-73
2022/11/01 05:09:29;;;;;;;4.47;2.90;;;19.70;61.80;;;;;;20702645;28;20038;-75
2022/11/01 05:19:30;;;;;;;4.20;3.28;;;19.70;61.80;;;;;;20687593;28;20720;-73
2022/11/01 05:29:31;;;;;;;6.05;3.55;;;19.60;61.90;;;;;;20683013;28;20030;-76
2022/11/01 05:39:32;;;;;;;5.88;3.28;;;19.60;61.90;;;;;;20706628;28;20045;-75
2022/11/01 05:49:34;;;;;;;7.50;4.20;;;19.60;62.00;;;;;;20687778;28;20391;-77
2022/11/01 05:59:35;;;;;;;6.50;4.20;;;19.60;62.00;;;;;;20668217;28;20042;-74
2022/11/01 06:09:37;;;;;;;5.40;3.38;;;19.60;62.10;;;;;;20664230;28;20038;-69
2022/11/01 06:19:38;;;;;;;5.20;3.50;;;19.60;62.20;;;;;;20692719;28;20093;-69
2022/11/01 06:29:38;;;;;;;8.77;3.75;;;19.50;62.20;;;;;;20657568;28;20380;-74
2022/11/01 06:39:39;;;;;;;8.43;4.22;;;19.60;62.30;;;;;;20675132;28;20386;-74
2022/11/01 06:49:40;;;;;;;6.50;3.90;;;19.50;62.30;;;;;;20669535;28;20044;-75
2022/11/01 06:59:40;;;;;;;6.73;3.23;;;19.60;62.40;;;;;;20683442;28;20302;-74
2022/11/01 07:09:41;;;;;;;6.45;3.55;;;19.50;62.40;;;;;;20657552;28;20301;-75
2022/11/01 07:19:42;;;;;;;5.47;3.72;;;19.50;62.50;;;;;;20648641;28;20041;-74
2022/11/01 07:29:43;;;;;;;7.22;4.05;;;19.50;62.40;;;;;;20678050;28;20093;-74
2022/11/01 07:39:44;;;;;;;7.00;4.70;;;19.50;62.60;;;;;;20665041;28;20107;-73
2022/11/01 07:49:46;;;;;;;7.10;3.70;;;19.50;62.70;;;;;;20644894;28;20554;-74
2022/11/01 07:59:47;;;;;;;6.18;3.90;;;19.50;62.70;;;;;;20664484;28;20042;-75
2022/11/01 08:09:48;;;;;;;5.30;3.30;;;19.50;62.70;;;;;;20665230;28;20042;-73
2022/11/01 08:19:48;;;;;;;5.57;3.17;;;19.50;62.70;;;;;;20647805;28;20389;-73
2022/11/01 08:29:49;;;;;;;7.05;3.83;;;19.40;62.70;;;;;;20697649;28;20033;-73
2022/11/01 08:39:49;;;;;;;7.27;3.63;;;19.40;62.70;;;;;;20696798;28;20088;-73
2022/11/01 08:49:50;;;;;;;4.75;2.92;;;19.40;62.70;;;;;;20655632;28;20978;-73
2022/11/01 08:59:51;;;;;;;4.07;2.80;;;19.30;62.70;;;;;;20663353;28;20038;-73
2022/11/01 09:09:51;;;;;;;5.63;4.20;;;19.40;62.80;;;;;;20691009;28;20065;-76
2022/11/01 09:19:53;;;;;;;4.72;3.17;;;19.40;62.90;;;;;;20664911;28;20398;-74
2022/11/01 09:29:54;;;;;;;4.25;2.50;;;19.40;62.80;;;;;;20698851;28;20030;-72
2022/11/01 09:39:56;;;;;;;3.40;2.30;;;19.40;62.80;;;;;;20685950;28;20330;-73
2022/11/01 09:50:17;;;;;;;4.57;3.42;;;19.40;62.80;;;;;;20640553;28;20034;-73
2022/11/01 10:00:18;;;;;;;4.13;2.80;;;19.40;62.80;;;;;;20665367;28;20042;-70
2022/11/01 10:10:50;;;;;;;4.93;3.00;;;19.40;62.80;;;;;;20623609;28;20034;-72
2022/11/01 10:20:51;;;;;;;3.28;2.20;;;19.40;62.80;;;;;;20673775;28;20480;-72
2022/11/01 10:30:55;;;;;;;4.43;2.50;;;19.30;62.70;;;;;;20689918;28;20037;-73
2022/11/01 10:41:08;;;;;;;4.18;2.40;;;19.40;62.70;;;;;;20633811;28;20035;-70
2022/11/01 10:51:15;;;;;;;4.68;2.70;;;19.40;62.70;;;;;;20672566;28;20126;-71
2022/11/01 11:01:18;;;;;;;6.07;2.55;;;19.40;62.60;;;;;;20678709;28;20038;-71
2022/11/01 11:11:25;;;;;;;2.92;1.85;;;19.40;62.50;;;;;;20665536;28;20477;-71
2022/11/01 11:21:29;;;;;;;4.53;2.53;;;19.50;62.50;;;;;;20691689;28;20038;-73
2022/11/01 11:31:32;;;;;;;4.35;2.28;;;19.50;62.60;;;;;;20654378;28;20038;-73
2022/11/01 11:41:35;;;;;;;4.45;2.10;;;19.60;62.50;;;;;;20662981;28;20401;-72
2022/11/01 11:51:39;;;;;;;3.83;2.00;;;19.70;62.60;;;;;;20690819;28;20038;-75
2022/11/01 12:01:41;;;;;;;2.95;1.80;;;19.70;62.50;;;;;;20668632;28;20029;-75
2022/11/01 12:11:44;;;;;;;4.63;2.47;;;19.70;62.40;;;;;;20662377;28;20030;-74
2022/11/01 12:21:46;;;;;;;8.70;2.38;;;19.80;62.30;;;;;;20644090;28;20034;-76
2022/11/01 12:31:47;;;;;;;4.82;1.98;;;19.80;62.20;;;;;;20665346;28;20100;-75
2022/11/01 12:41:51;;;;;;;3.38;1.90;;;19.90;62.00;;;;;;20696185;28;20037;-77
2022/11/01 12:51:54;;;;;;;5.40;2.00;;;19.90;61.70;;;;;;20697445;28;20040;-75
2022/11/01 13:02:16;;;;;;;4.20;2.03;;;20.00;61.20;;;;;;20677371;28;20531;-74
2022/11/01 13:12:45;;;;;;;4.75;1.70;;;20.10;60.70;;;;;;20667349;28;20078;-75
2022/11/01 13:22:58;;;;;;;2.60;1.50;;;20.20;60.30;;;;;;20671912;28;20044;-83
2022/11/01 13:33:04;;;;;;;2.40;1.40;;;20.30;59.80;;;;;;20653987;28;20074;-74
2022/11/01 13:43:20;;;;;;;1.50;1.20;;;20.40;59.50;;;;;;20672680;28;20104;-74
2022/11/01 13:53:33;;;;;;;3.75;1.73;;;20.50;59.10;;;;;;20700588;28;20132;-74
2022/11/01 14:03:33;;;;;;;1.85;1.27;;;20.50;58.70;;;;;;20699630;28;20029;-75
2022/11/01 14:13:39;;;;;;;1.50;1.02;;;20.60;58.30;;;;;;20688312;28;20041;-78
2022/11/01 14:23:39;;;;;;;2.78;0.95;;;20.70;57.80;;;;;;20689968;28;20205;-75
2022/11/01 14:33:40;;;;;;;3.17;1.53;;;20.70;57.40;;;;;;20679527;28;20124;-76
2022/11/01 14:43:51;;;;;;;2.40;1.08;;;20.70;57.00;;;;;;20711565;28;20121;-75
2022/11/01 14:53:58;;;;;;;3.88;1.17;;;20.70;57.00;;;;;;20710669;28;20042;-76
2022/11/01 15:03:59;;;;;;;4.20;1.08;;;20.60;56.90;;;;;;20662743;28;20061;-75
2022/11/01 15:14:02;;;;;;;3.38;1.05;;;20.70;56.80;;;;;;20707122;28;20034;-77
2022/11/01 15:24:03;;;;;;;1.17;0.75;;;20.70;56.80;;;;;;20722931;28;20088;-76
2022/11/01 15:34:27;;;;;;;1.90;0.80;;;20.70;56.80;;;;;;20710532;28;20400;-76
2022/11/01 15:44:29;;;;;;;2.75;1.00;;;20.60;56.80;;;;;;20706794;28;20518;-78
2022/11/01 15:54:35;;;;;;;3.78;1.00;;;20.60;56.80;;;;;;20699364;28;20522;-76
2022/11/01 16:04:39;;;;;;;3.28;1.00;;;20.60;56.90;;;;;;20682273;28;20042;-75
2022/11/01 16:14:40;;;;;;;2.70;1.05;;;20.60;57.00;;;;;;20698841;28;20038;-72
2022/11/01 16:24:41;;;;;;;2.37;1.00;;;20.50;57.00;;;;;;20693685;28;20411;-73
2022/11/01 16:34:41;;;;;;;4.57;1.58;;;20.50;57.20;;;;;;20719105;28;20771;-71
2022/11/01 16:44:43;;;;;;;1.10;0.65;;;20.40;57.20;;;;;;20684173;28;20030;-71
2022/11/01 16:54:46;;;;;;;1.65;0.60;;;20.40;57.20;;;;;;20656770;28;20093;-70
2022/11/01 17:04:49;;;;;;;2.58;0.73;;;20.40;57.20;;;;;;20709715;28;20445;-71
2022/11/01 17:14:51;;;;;;;1.60;0.68;;;20.40;57.10;;;;;;20693605;28;20108;-71
2022/11/01 17:24:51;;;;;;;1.92;0.90;;;20.50;57.00;;;;;;20710488;28;20064;-72
2022/11/01 17:34:52;;;;;;;0.80;0.50;;;21.70;54.50;;;;;;20716091;28;20116;-72
2022/11/01 17:44:53;;;;;;;0.95;0.77;;;23.10;51.40;;;;;;20714214;28;20280;-72
2022/11/01 17:54:53;;;;;;;2.80;0.73;;;23.50;50.00;;;;;;20675668;28;20074;-71
2022/11/01 18:04:54;;;;;;;2.75;1.48;;;22.90;50.70;;;;;;20693556;28;20918;-73
2022/11/01 18:15:11;;;;;;;3.00;0.90;;;22.30;51.80;;;;;;20720446;28;20041;-76
2022/11/01 18:25:35;;;;;;;2.33;0.50;;;21.60;52.90;;;;;;20673193;28;20373;-74
2022/11/01 18:35:40;;;;;;;2.08;0.70;;;21.20;53.90;;;;;;20694341;28;20034;-72
2022/11/01 18:45:40;;;;;;;2.20;0.63;;;21.00;54.50;;;;;;20695464;28;20535;-73
2022/11/01 18:55:43;;;;;;;2.10;0.53;;;20.80;54.80;;;;;;20715296;28;20033;-73
2022/11/01 19:05:43;;;;;;;1.33;0.77;;;20.80;55.00;;;;;;20723434;28;20034;-74
2022/11/01 19:15:44;;;;;;;1.80;0.50;;;20.70;55.10;;;;;;20701797;28;20041;-73
2022/11/01 19:25:45;;;;;;;1.13;0.70;;;20.70;55.20;;;;;;20716870;28;20821;-74
2022/11/01 19:35:47;;;;;;;2.25;0.65;;;20.60;55.10;;;;;;20719505;28;20323;-73
2022/11/01 19:45:51;;;;;;;3.33;0.60;;;20.60;55.10;;;;;;20695711;28;20116;-74
2022/11/01 19:56:06;;;;;;;1.90;0.60;;;20.60;55.10;;;;;;20689245;28;20148;-74
2022/11/01 20:06:14;;;;;;;1.05;0.55;;;20.60;55.10;;;;;;20704728;28;20037;-74
2022/11/01 20:16:15;;;;;;;2.40;0.75;;;20.50;55.10;;;;;;20714798;28;20034;-75
2022/11/01 20:26:15;;;;;;;0.80;0.60;;;20.50;55.10;;;;;;20701502;28;20050;-75
2022/11/01 20:36:16;;;;;;;1.43;0.60;;;20.50;55.00;;;;;;20698056;28;20304;-74
2022/11/01 20:46:17;;;;;;;3.40;0.85;;;20.40;55.00;;;;;;20665423;28;20293;-75
2022/11/01 20:56:18;;;;;;;1.93;0.77;;;20.40;54.90;;;;;;20708968;28;20631;-74
2022/11/01 21:06:18;;;;;;;2.33;0.83;;;20.40;55.00;;;;;;20722197;28;20360;-74
2022/11/01 21:16:22;;;;;;;3.53;0.63;;;20.40;55.00;;;;;;20701299;28;20678;-74
2022/11/01 21:26:26;;;;;;;1.83;0.60;;;20.30;54.90;;;;;;20705702;28;20030;-74
2022/11/01 21:36:34;;;;;;;1.40;0.73;;;20.30;54.90;;;;;;20693976;28;20045;-73
2022/11/01 21:46:35;;;;;;;3.60;1.10;;;20.30;54.90;;;;;;20725855;28;20044;-74
2022/11/01 21:56:35;;;;;;;1.88;0.70;;;20.30;55.00;;;;;;20715209;28;20034;-74
2022/11/01 22:06:36;;;;;;;1.95;1.00;;;20.30;55.00;;;;;;20730643;28;20388;-74
2022/11/01 22:16:37;;;;;;;2.17;0.70;;;20.30;55.00;;;;;;20704595;28;20461;-74
2022/11/01 22:26:38;;;;;;;0.95;0.50;;;20.20;55.00;;;;;;20707170;28;20300;-73
2022/11/01 22:36:39;;;;;;;3.05;0.70;;;20.20;55.10;;;;;;20685707;28;20045;-74
2022/11/01 22:46:47;;;;;;;2.47;0.93;;;20.20;55.10;;;;;;20719824;28;20053;-74
2022/11/01 22:56:53;;;;;;;1.25;0.60;;;20.20;55.10;;;;;;20709587;28;20037;-74
2022/11/01 23:06:54;;;;;;;;;;;20.20;55.10;;;;;;20695221;28;20029;-74
2022/11/01 23:16:54;;;;;;;2.50;1.05;;;20.10;55.00;;;;;;20689592;28;19924;-74
2022/11/01 23:26:55;;;;;;;0.88;0.52;;;20.10;55.00;;;;;;20672262;28;20030;-74
2022/11/01 23:36:55;;;;;;;1.07;0.50;;;20.10;55.10;;;;;;20683494;28;20481;-74
2022/11/01 23:47:15;;;;;;;0.80;0.60;;;20.10;55.20;;;;;;20710787;28;20783;-74
2022/11/01 23:57:19;;;;;;;1.00;0.40;;;20.00;55.20;;;;;;20684861;28;20052;-74
